Latest Coastal Weather Observations for Portland Harbour

IDV60701

Issued at 11:41 am EST Tuesday 21 May 2024 (issued every 10 minutes, with the page automatically refreshed every 10 minutes)

About coastal observations | Map of coastal stations | Coastal observations for VIC | Marine services | Other Formats
Station Details ID: 090192 Name: PORTLAND NTC AWS Lat: -38.34 Lon: 141.61 Height: 0.0 m
Data from the previous 72 hours. | See also: Recent months for locations in Victoria
Date/Time
EST
Wind Sea
Height
m
Swell Vis
km
Cloud Weather Temp
°C
Press
MSL
hPa
Rain since
9am
mm
Dir  Spd
kts
Gust
kts
Height
m
Period
s
Dir
21/11:30am ESE 4 8 - - - - - - - 12.9 1032.6 -
21/11:00am SE 6 10 - - - - - - - 12.8 1032.7 -
21/10:30am SE 6 13 - - - - - - - 12.8 1032.7 -
21/10:00am SE 8 12 - - - - - - - 12.7 1032.6 -
21/09:30am SSE 9 14 - - - - - - - 12.6 1032.5 -
21/09:00am SSE 9 13 - - - - - - - 12.7 1032.5 -
21/08:30am SSE 8 11 - - - - - - - 12.7 1032.1 -
21/08:00am SE 9 13 - - - - - - - 12.4 1031.7 -
21/07:30am SE 11 16 - - - - - - - 11.6 1031.4 -
21/07:00am SSE 7 12 - - - - - - - 11.3 1031.1 -
21/06:30am SSE 10 16 - - - - - - - 11.4 1031.3 -
21/06:00am S 9 14 - - - - - - - 11.1 1031.2 -
21/05:30am S 8 10 - - - - - - - 11.3 1031.0 -
21/05:00am SSE 12 16 - - - - - - - 11.4 1031.0 -
21/04:30am SE 11 15 - - - - - - - 11.6 1031.0 -
21/04:00am S 8 11 - - - - - - - 11.1 1031.0 -
21/03:30am SSE 7 10 - - - - - - - 11.8 1031.3 -
21/03:00am SSE 10 17 - - - - - - - 11.4 1031.5 -
21/02:30am S 5 6 - - - - - - - 11.6 1031.6 -
21/02:00am SSE 8 14 - - - - - - - 12.2 1031.5 -
21/01:30am SSE 9 12 - - - - - - - 12.5 1031.6 -
21/01:00am S 8 10 - - - - - - - 12.3 1031.5 -
21/12:30am S 8 11 - - - - - - - 12.3 1031.6 -
21/12:00am S 8 11 - - - - - - - 12.3 1031.7 -
 
Date/Time
EST
Wind Sea
Height
m
Swell Vis
km
Cloud Weather Temp
°C
Press
MSL
hPa
Rain since
9am
mm
Dir  Spd
kts
Gust
kts
Height
m
Period
s
Dir
20/11:30pm S 8 11 - - - - - - - 12.3 1031.7 -
20/11:00pm SSE 7 9 - - - - - - - 12.5 1031.6 -
20/10:30pm SSE 7 11 - - - - - - - 12.3 1031.8 -
20/10:00pm S 9 14 - - - - - - - 11.5 1031.9 -
20/09:30pm S 9 12 - - - - - - - 11.9 1031.8 -
20/09:00pm S 7 12 - - - - - - - 12.1 1031.7 -
20/08:30pm SE 8 11 - - - - - - - 12.2 1031.4 -
20/08:00pm S 5 7 - - - - - - - 12.0 1031.1 -
20/07:30pm SSW 3 5 - - - - - - - 12.2 1031.0 -
20/07:00pm S 5 7 - - - - - - - 12.2 1030.9 -
20/06:30pm S 5 7 - - - - - - - 12.4 1030.6 -
20/06:00pm S 7 11 - - - - - - - 12.0 1030.4 -
20/05:30pm S 9 12 - - - - - - - 11.9 1030.3 -
20/05:00pm S 7 9 - - - - - - - 12.1 1030.2 -
20/04:30pm S 9 12 - - - - - - - 12.5 1030.0 -
20/04:00pm S 10 14 - - - - - - - 13.1 1029.8 -
20/03:30pm S 11 15 - - - - - - - 12.6 1029.7 -
20/03:00pm S 11 14 - - - - - - - 13.5 1029.6 -
20/02:30pm S 10 13 - - - - - - - 13.5 1029.5 -
20/02:00pm SSW 10 15 - - - - - - - 13.6 1029.4 -
20/01:30pm S 11 16 - - - - - - - 13.3 1029.5 -
20/01:00pm S 11 16 - - - - - - - 13.8 1029.5 -
20/12:30pm S 13 17 - - - - - - - 13.7 1029.8 -
20/12:00pm S 12 16 - - - - - - - 13.8 1030.1 -
20/11:30am SSE 11 16 - - - - - - - 13.7 1030.3 -
20/11:00am S 12 17 - - - - - - - 13.6 1030.3 -
20/10:30am SSE 10 14 - - - - - - - 13.1 1030.3 -
20/10:00am SSE 7 9 - - - - - - - 13.1 1030.0 -
20/09:30am S 9 12 - - - - - - - 13.2 1029.9 -
20/09:00am S 9 12 - - - - - - - 13.0 1029.7 -
20/08:30am S 8 12 - - - - - - - 13.2 1029.2 -
20/08:00am S 8 10 - - - - - - - 12.5 1029.0 -
20/07:30am S 6 9 - - - - - - - 12.1 1028.7 -
20/07:00am S 12 16 - - - - - - - 11.8 1028.4 -
20/06:30am S 9 13 - - - - - - - 12.7 1028.1 -
20/06:00am S 10 13 - - - - - - - 13.0 1027.8 -
20/05:30am S 10 13 - - - - - - - 13.2 1027.5 -
20/05:00am S 8 12 - - - - - - - 13.2 1027.3 -
20/04:30am S 9 12 - - - - - - - 13.0 1027.1 -
20/04:00am S 10 14 - - - - - - - 13.0 1026.8 -
20/03:30am S 12 17 - - - - - - - 13.2 1026.6 -
20/03:00am S 10 14 - - - - - - - 13.4 1026.6 -
20/02:30am S 12 16 - - - - - - - 13.5 1026.5 -
20/02:00am SSE 9 14 - - - - - - - 13.4 1026.3 -
20/01:30am S 10 14 - - - - - - - 13.5 1026.1 -
20/01:00am S 13 19 - - - - - - - 13.2 1026.1 -
20/12:30am SSW 11 14 - - - - - - - 13.8 1026.0 -
20/12:00am SW 8 11 - - - - - - - 13.1 1026.1 -
 
Date/Time
EST
Wind Sea
Height
m
Swell Vis
km
Cloud Weather Temp
°C
Press
MSL
hPa
Rain since
9am
mm
Dir  Spd
kts
Gust
kts
Height
m
Period
s
Dir
19/11:30pm SW 10 16 - - - - - - - 13.0 1026.2 -
19/11:00pm SSW 10 13 - - - - - - - 13.8 1026.2 -
19/10:30pm SSW 10 15 - - - - - - - 13.7 1026.3 -
19/10:00pm SSW 12 17 - - - - - - - 13.7 1026.4 -
19/09:30pm SSW 10 13 - - - - - - - 13.8 1026.3 -
19/09:00pm SSW 9 12 - - - - - - - 13.9 1026.3 -
19/08:30pm SSW 11 14 - - - - - - - 13.9 1026.2 -
19/08:00pm SSW 8 13 - - - - - - - 13.8 1026.2 -
19/07:30pm SSW 10 15 - - - - - - - 13.9 1026.1 -
19/07:00pm SSW 13 18 - - - - - - - 14.0 1025.9 -
19/06:30pm SW 10 16 - - - - - - - 14.1 1025.6 -
19/06:00pm SW 10 13 - - - - - - - 14.0 1025.2 -
19/05:30pm SW 9 15 - - - - - - - 13.9 1025.0 -
19/05:00pm SW 12 18 - - - - - - - 14.2 1024.7 -
19/04:30pm SW 10 15 - - - - - - - 14.6 1024.5 -
19/04:00pm SW 16 22 - - - - - - - 14.8 1024.5 -
19/03:30pm SW 16 23 - - - - - - - 14.8 1024.3 -
19/03:00pm SW 14 21 - - - - - - - 14.5 1024.4 -
19/02:30pm SW 17 24 - - - - - - - 14.5 1024.5 -
19/02:00pm SW 13 18 - - - - - - - 14.2 1024.5 -
19/01:30pm SW 16 25 - - - - - - - 14.9 1024.7 -
19/01:21pm SW 15 25 - - - - - - - 14.6 1024.7 -
19/01:00pm SW 13 19 - - - - - - - 14.7 1024.7 -
19/12:30pm SW 15 22 - - - - - - - 14.2 1025.1 -
19/12:00pm WSW 14 18 - - - - - - - 13.7 1025.4 -
19/11:42am SW 15 26 - - - - - - - 13.5 1025.8 -
19/11:30am WSW 17 24 - - - - - - - 14.5 1025.7 -
19/11:00am WSW 16 22 - - - - - - - 14.6 1025.7 -
19/10:30am WSW 13 20 - - - - - - - 14.3 1025.7 -
19/10:00am WSW 12 19 - - - - - - - 14.4 1025.9 -
19/09:30am WSW 12 18 - - - - - - - 13.9 1026.0 -
19/09:00am W 12 20 - - - - - - - 13.3 1026.1 -
19/08:30am WSW 13 22 - - - - - - - 13.4 1026.2 -
19/08:00am WSW 13 19 - - - - - - - 14.0 1026.1 -
19/07:30am WSW 13 20 - - - - - - - 14.1 1025.9 -
19/07:00am WSW 13 20 - - - - - - - 14.1 1025.7 -
19/06:30am WSW 11 18 - - - - - - - 13.9 1025.5 -
19/06:00am W 10 14 - - - - - - - 13.1 1025.7 -
19/05:30am WSW 10 15 - - - - - - - 13.3 1025.9 -
19/05:00am WSW 10 19 - - - - - - - 13.7 1025.9 -
19/04:30am W 9 14 - - - - - - - 13.4 1026.0 -
19/04:00am WSW 8 12 - - - - - - - 13.4 1026.4 -
19/03:30am WSW 8 15 - - - - - - - 13.2 1026.7 -
19/03:00am WSW 9 13 - - - - - - - 12.5 1027.1 -
19/02:30am WSW 9 16 - - - - - - - 13.1 1027.3 -
19/02:00am WSW 10 15 - - - - - - - 12.8 1027.4 -
19/01:30am WSW 12 16 - - - - - - - 13.3 1027.8 -
19/01:00am WSW 11 20 - - - - - - - 12.7 1028.2 -
19/12:30am W 7 10 - - - - - - - 12.7 1028.5 -
19/12:00am WSW 8 12 - - - - - - - 12.7 1028.8 -
 
Date/Time
EST
Wind Sea
Height
m
Swell Vis
km
Cloud Weather Temp
°C
Press
MSL
hPa
Rain since
9am
mm
Dir  Spd
kts
Gust
kts
Height
m
Period
s
Dir
18/11:30pm WSW 8 13 - - - - - - - 12.6 1029.1 -
18/11:00pm W 7 12 - - - - - - - 12.3 1029.5 -
18/10:30pm W 7 9 - - - - - - - 12.0 1029.8 -
18/10:00pm WSW 9 13 - - - - - - - 12.2 1030.6 -
18/09:30pm SW 9 14 - - - - - - - 12.1 1030.9 -
18/09:00pm SW 8 12 - - - - - - - 12.0 1030.9 -
18/08:30pm WSW 8 11 - - - - - - - 12.0 1030.7 -
18/08:00pm W 7 12 - - - - - - - 11.9 1030.9 -
18/07:30pm WSW 7 12 - - - - - - - 12.1 1031.4 -
18/07:00pm WSW 5 7 - - - - - - - 11.7 1031.4 -
18/06:30pm WNW 5 8 - - - - - - - 11.5 1031.0 -
18/06:00pm W 4 6 - - - - - - - 11.6 1031.5 -
18/05:30pm SW 8 11 - - - - - - - 11.7 1032.1 -
18/05:00pm SW 8 11 - - - - - - - 12.3 1031.7 -
18/04:30pm SW 5 7 - - - - - - - 12.7 1032.0 -
18/04:00pm SW 4 6 - - - - - - - 12.7 1032.3 -
18/03:30pm SW 8 13 - - - - - - - 12.7 1032.8 -
18/03:00pm S 8 11 - - - - - - - 13.1 1032.8 -
18/02:30pm SSW 7 10 - - - - - - - 12.6 1032.9 -
18/02:00pm SSW 5 8 - - - - - - - 13.0 1033.2 -
18/01:30pm SW 6 8 - - - - - - - 12.6 1033.6 -
18/01:00pm S 8 11 - - - - - - - 12.6 1033.8 -
18/12:30pm SSW 5 7 - - - - - - - 12.9 1034.2 -
18/12:00pm ESE 5 11 - - - - - - - 12.9 1034.7 -

Other formats

Comma delimited format used in spreadsheet applications
http://www.bom.gov.au/fwo/IDV60701/IDV60701.95826.axf

JavaScript Object Notation format (JSON) in row-major order
http://www.bom.gov.au/fwo/IDV60701/IDV60701.95826.json

Data quality

Most of these data are generated automatically and are frequently updated. Quality checks on data are not normally performed. It is possible for incorrect values to appear. Refer to information at About Latest Weather Observations and please check the disclaimer before using these data.